createdAt,value
2018-12-07T00:01:07.240Z,9.70
2018-12-07T00:03:35.169Z,9.70
2018-12-07T00:06:03.143Z,9.60
2018-12-07T00:08:31.042Z,9.60
2018-12-07T00:10:58.978Z,9.50
2018-12-07T00:13:26.599Z,9.50
2018-12-07T00:15:54.429Z,9.50
2018-12-07T00:18:22.715Z,9.40
2018-12-07T00:20:50.411Z,9.40
2018-12-07T00:23:18.281Z,9.40
2018-12-07T00:25:46.271Z,9.30
2018-12-07T00:28:14.099Z,9.30
2018-12-07T00:30:41.829Z,9.30
2018-12-07T00:33:09.662Z,9.20
2018-12-07T00:35:37.390Z,9.30
2018-12-07T00:38:05.322Z,9.30
2018-12-07T00:40:33.070Z,9.30
2018-12-07T00:43:00.754Z,9.30
2018-12-07T00:45:28.626Z,9.40
2018-12-07T00:47:56.337Z,9.40
2018-12-07T00:50:24.811Z,9.40
2018-12-07T00:52:52.609Z,9.30
2018-12-07T00:55:36.785Z,9.30
2018-12-07T00:58:04.965Z,9.30
2018-12-07T01:00:32.903Z,9.30
2018-12-07T01:03:01.473Z,9.40
2018-12-07T01:05:29.271Z,9.30
2018-12-07T01:07:57.226Z,9.40
2018-12-07T01:10:25.229Z,9.40
2018-12-07T01:12:53.079Z,9.50
2018-12-07T01:15:20.888Z,9.40
2018-12-07T01:17:48.849Z,9.40
2018-12-07T01:20:16.856Z,9.40
2018-12-07T01:22:44.792Z,9.40
2018-12-07T01:25:13.541Z,9.40
2018-12-07T01:27:41.893Z,9.40
2018-12-07T01:30:09.819Z,9.30
2018-12-07T01:32:37.756Z,9.40
2018-12-07T01:35:05.420Z,9.40
2018-12-07T01:37:33.213Z,9.30
2018-12-07T01:40:01.246Z,9.30
2018-12-07T01:42:29.012Z,9.30
2018-12-07T01:44:56.802Z,9.40
2018-12-07T01:47:24.735Z,9.40
2018-12-07T01:49:52.670Z,9.50
2018-12-07T01:52:21.014Z,9.50
2018-12-07T01:54:48.946Z,9.50
2018-12-07T01:57:16.861Z,9.60
2018-12-07T01:59:44.640Z,9.60
2018-12-07T02:02:12.645Z,9.60
2018-12-07T02:04:41.296Z,9.70
2018-12-07T02:07:21.007Z,9.60
2018-12-07T02:09:48.950Z,9.70
2018-12-07T02:12:18.799Z,9.80
2018-12-07T02:14:46.755Z,9.70
2018-12-07T02:17:14.591Z,9.70
2018-12-07T02:19:42.410Z,9.70
2018-12-07T02:22:10.174Z,9.70
2018-12-07T02:24:37.918Z,9.80
2018-12-07T02:27:06.066Z,9.80
2018-12-07T02:29:34.157Z,9.80
2018-12-07T02:32:02.087Z,9.80
2018-12-07T02:34:30.010Z,9.90
2018-12-07T02:36:57.853Z,9.90
2018-12-07T02:39:25.479Z,9.90
2018-12-07T02:41:53.249Z,9.80
2018-12-07T02:44:21.143Z,9.90
2018-12-07T02:46:48.976Z,9.80
2018-12-07T02:49:16.702Z,9.80
2018-12-07T02:51:44.965Z,9.80
2018-12-07T02:54:12.883Z,9.90
2018-12-07T02:56:40.945Z,9.90
2018-12-07T02:59:08.732Z,9.90
2018-12-07T03:01:37.083Z,9.90
2018-12-07T03:04:05.768Z,9.90
2018-12-07T03:06:33.438Z,10.00
2018-12-07T03:09:01.715Z,9.90
2018-12-07T03:11:29.448Z,9.90
2018-12-07T03:13:57.380Z,9.90
2018-12-07T03:16:25.140Z,10.00
2018-12-07T03:18:53.181Z,10.00
2018-12-07T03:21:21.085Z,10.00
2018-12-07T03:23:49.008Z,10.00
2018-12-07T03:26:16.948Z,10.00
2018-12-07T03:28:44.769Z,10.00
2018-12-07T03:31:12.594Z,10.10
2018-12-07T03:33:40.449Z,10.10
2018-12-07T03:36:08.153Z,10.20
2018-12-07T03:38:35.994Z,10.20
2018-12-07T03:41:03.901Z,10.30
2018-12-07T03:43:31.653Z,10.30
2018-12-07T03:46:00.383Z,10.30
2018-12-07T03:48:28.238Z,10.30
2018-12-07T03:50:57.099Z,10.30
2018-12-07T03:53:25.360Z,10.30
2018-12-07T03:55:53.092Z,10.30
2018-12-07T03:58:21.619Z,10.30
2018-12-07T04:00:49.287Z,10.30
2018-12-07T04:03:17.292Z,10.30
2018-12-07T04:05:45.135Z,10.40
2018-12-07T04:08:12.949Z,10.40
2018-12-07T04:10:41.420Z,10.40
2018-12-07T04:13:09.359Z,10.40
2018-12-07T04:15:37.265Z,10.50
2018-12-07T04:18:04.974Z,10.50
2018-12-07T04:20:32.929Z,10.40
2018-12-07T04:23:00.764Z,10.50
2018-12-07T04:25:28.615Z,10.50
2018-12-07T04:27:56.425Z,10.50
2018-12-07T04:30:26.001Z,10.50
2018-12-07T04:32:53.836Z,10.40
2018-12-07T04:35:21.767Z,10.40
2018-12-07T04:37:49.599Z,10.40
2018-12-07T04:40:17.539Z,10.50
2018-12-07T04:42:46.504Z,10.40
2018-12-07T04:45:14.525Z,10.40
2018-12-07T04:47:42.468Z,10.40
2018-12-07T04:50:10.230Z,10.40
2018-12-07T04:52:38.034Z,10.40
2018-12-07T04:55:06.051Z,10.40
2018-12-07T04:57:34.104Z,10.40
2018-12-07T05:00:02.118Z,10.40
2018-12-07T05:02:30.220Z,10.40
2018-12-07T05:04:58.048Z,10.40
2018-12-07T05:07:25.945Z,10.40
2018-12-07T05:09:53.762Z,10.40
2018-12-07T05:12:21.598Z,10.40
2018-12-07T05:14:49.418Z,10.40
2018-12-07T05:17:17.246Z,10.50
2018-12-07T05:19:45.180Z,10.50
2018-12-07T05:22:12.829Z,10.50
2018-12-07T05:24:41.418Z,10.50
2018-12-07T05:27:09.201Z,10.60
2018-12-07T05:29:37.214Z,10.60
2018-12-07T05:32:04.915Z,10.60
2018-12-07T05:34:32.551Z,10.70
2018-12-07T05:37:00.183Z,10.70
2018-12-07T05:39:28.391Z,10.70
2018-12-07T05:41:56.387Z,10.70
2018-12-07T05:44:24.255Z,10.70
2018-12-07T05:46:52.085Z,10.70
2018-12-07T05:49:19.909Z,10.70
2018-12-07T05:51:48.455Z,10.80
2018-12-07T05:54:17.127Z,10.80
2018-12-07T05:56:44.827Z,10.80
2018-12-07T05:59:12.656Z,10.80
2018-12-07T06:01:41.112Z,10.80
2018-12-07T06:04:09.139Z,10.80
2018-12-07T06:06:37.059Z,10.80
2018-12-07T06:09:06.174Z,10.80
2018-12-07T06:11:33.787Z,10.80
2018-12-07T06:14:01.670Z,10.80
2018-12-07T06:16:30.011Z,10.90
2018-12-07T06:18:58.611Z,10.80
2018-12-07T06:21:26.473Z,10.80
2018-12-07T06:23:54.197Z,10.90
2018-12-07T06:26:22.025Z,10.80
2018-12-07T06:28:49.675Z,10.80
2018-12-07T06:31:18.170Z,10.80
2018-12-07T06:33:45.927Z,10.90
2018-12-07T06:36:13.625Z,10.90
2018-12-07T06:38:41.382Z,10.90
2018-12-07T06:41:09.311Z,11.00
2018-12-07T06:43:37.243Z,11.00
2018-12-07T06:46:04.994Z,11.00
2018-12-07T06:48:32.800Z,11.00
2018-12-07T06:51:00.771Z,11.00
2018-12-07T06:53:28.589Z,11.00
2018-12-07T06:55:56.399Z,11.00
2018-12-07T06:58:24.367Z,11.00
2018-12-07T07:00:52.361Z,11.00
2018-12-07T07:03:21.029Z,11.00
2018-12-07T07:05:48.836Z,11.00
2018-12-07T07:08:17.380Z,11.00
2018-12-07T07:10:45.253Z,11.00
2018-12-07T07:13:13.036Z,11.00
2018-12-07T07:15:40.678Z,11.00
2018-12-07T07:18:08.427Z,11.00
2018-12-07T07:20:36.077Z,11.00
2018-12-07T07:23:03.845Z,11.00
2018-12-07T07:25:31.780Z,11.00
2018-12-07T07:27:59.436Z,11.00
2018-12-07T07:30:33.109Z,11.00
2018-12-07T07:33:08.043Z,11.00
2018-12-07T07:35:36.431Z,11.00
2018-12-07T07:38:04.171Z,11.00
2018-12-07T07:40:31.815Z,11.00
2018-12-07T07:42:59.552Z,10.90
2018-12-07T07:45:27.441Z,10.90
2018-12-07T07:47:55.540Z,10.80
2018-12-07T07:50:23.404Z,10.80
2018-12-07T07:52:51.166Z,10.80
2018-12-07T07:55:18.959Z,10.80
2018-12-07T07:57:46.559Z,10.90
2018-12-07T08:00:14.411Z,10.90
2018-12-07T08:02:42.760Z,10.90
2018-12-07T08:05:10.687Z,11.00
2018-12-07T08:07:38.409Z,10.90
2018-12-07T08:10:06.261Z,11.00
2018-12-07T08:12:33.949Z,11.00
2018-12-07T08:15:02.658Z,11.00
2018-12-07T08:17:30.439Z,11.00
2018-12-07T08:19:58.267Z,11.10
2018-12-07T08:22:26.606Z,11.10
2018-12-07T08:24:54.329Z,11.00
2018-12-07T08:27:22.704Z,11.00
2018-12-07T08:29:50.523Z,11.00
2018-12-07T08:32:18.180Z,11.10
2018-12-07T08:34:46.059Z,11.10
2018-12-07T08:37:13.880Z,11.10
2018-12-07T08:39:41.640Z,11.10
2018-12-07T08:42:09.565Z,11.10
2018-12-07T08:44:37.520Z,11.10
2018-12-07T08:47:07.917Z,11.00
2018-12-07T08:49:47.589Z,11.10
2018-12-07T08:52:15.703Z,11.10
2018-12-07T08:54:43.965Z,11.10
2018-12-07T08:57:11.768Z,11.20
2018-12-07T08:59:39.520Z,11.20
2018-12-07T09:02:07.324Z,11.20
2018-12-07T09:04:35.869Z,11.30
2018-12-07T09:07:03.522Z,11.30
2018-12-07T09:09:32.342Z,11.30
2018-12-07T09:11:59.991Z,11.40
2018-12-07T09:14:28.340Z,11.40
2018-12-07T09:16:56.147Z,11.40
2018-12-07T09:19:24.088Z,11.40
2018-12-07T09:21:51.915Z,11.30
2018-12-07T09:24:19.768Z,11.30
2018-12-07T09:26:47.569Z,11.20
2018-12-07T09:29:15.313Z,11.20
2018-12-07T09:31:43.249Z,11.20
2018-12-07T09:34:11.138Z,11.20
2018-12-07T09:36:39.940Z,11.20
2018-12-07T09:39:08.805Z,11.30
2018-12-07T09:41:37.269Z,11.30
2018-12-07T09:44:04.960Z,11.40
2018-12-07T09:46:33.407Z,11.60
2018-12-07T09:49:01.271Z,11.70
2018-12-07T09:51:29.091Z,11.80
2018-12-07T09:53:56.819Z,11.90
2018-12-07T09:56:24.674Z,12.00
2018-12-07T09:58:52.559Z,12.10
2018-12-07T10:01:20.193Z,12.00
2018-12-07T10:03:48.001Z,12.00
2018-12-07T10:06:17.192Z,12.00
2018-12-07T10:08:45.613Z,12.00
2018-12-07T10:11:13.546Z,11.90
2018-12-07T10:13:41.385Z,11.90
2018-12-07T10:16:09.673Z,11.90
2018-12-07T10:18:37.369Z,11.80
2018-12-07T10:21:05.191Z,11.70
2018-12-07T10:23:32.862Z,11.70
2018-12-07T10:26:00.856Z,11.70
2018-12-07T10:28:28.733Z,11.70
2018-12-07T10:30:56.884Z,11.70
2018-12-07T10:33:24.755Z,11.70
2018-12-07T10:35:52.727Z,11.70
2018-12-07T10:38:20.514Z,11.70
2018-12-07T10:40:48.257Z,11.80
2018-12-07T10:43:16.744Z,11.90
2018-12-07T10:45:44.403Z,12.10
2018-12-07T10:48:12.376Z,12.30
2018-12-07T10:50:40.142Z,12.50
2018-12-07T10:53:08.010Z,12.40
2018-12-07T10:55:35.684Z,12.40
2018-12-07T10:58:03.545Z,12.30
2018-12-07T11:00:36.943Z,12.20
2018-12-07T11:06:10.567Z,12.10
2018-12-07T11:08:44.072Z,12.00
2018-12-07T11:14:17.905Z,12.00
2018-12-07T11:19:53.848Z,12.10
2018-12-07T11:22:27.179Z,12.10
2018-12-07T11:25:00.497Z,12.20
2018-12-07T11:27:33.700Z,12.20
2018-12-07T11:33:14.157Z,12.20
2018-12-07T11:35:42.559Z,12.20
2018-12-07T11:38:10.346Z,12.30
2018-12-07T11:40:38.785Z,12.40
2018-12-07T11:43:06.551Z,12.40
2018-12-07T11:45:34.822Z,12.50
2018-12-07T11:48:03.291Z,12.50
2018-12-07T11:50:31.178Z,12.60
2018-12-07T11:52:59.148Z,12.60
2018-12-07T11:55:27.018Z,12.60
2018-12-07T11:57:54.703Z,12.60
2018-12-07T12:00:22.652Z,12.60
2018-12-07T12:02:50.443Z,12.50
2018-12-07T12:05:18.185Z,12.50
2018-12-07T12:07:45.828Z,12.60
2018-12-07T12:10:13.722Z,12.50
2018-12-07T12:12:41.512Z,12.50
2018-12-07T12:15:09.455Z,12.50
2018-12-07T12:17:37.159Z,12.50
2018-12-07T12:20:06.608Z,12.50
2018-12-07T12:22:34.602Z,12.40
2018-12-07T12:25:02.267Z,12.40
2018-12-07T12:27:29.955Z,12.20
2018-12-07T12:29:58.169Z,12.30
2018-12-07T12:32:25.971Z,12.40
2018-12-07T12:34:53.739Z,12.60
2018-12-07T12:37:21.608Z,12.60
2018-12-07T12:39:49.500Z,12.60
2018-12-07T12:42:18.575Z,12.40
2018-12-07T12:44:46.545Z,12.40
2018-12-07T12:47:14.420Z,12.40
2018-12-07T12:49:42.283Z,12.40
2018-12-07T12:52:10.149Z,12.30
2018-12-07T12:54:37.916Z,12.20
2018-12-07T12:57:05.787Z,12.10
2018-12-07T12:59:33.759Z,12.20
2018-12-07T13:02:01.630Z,12.10
2018-12-07T13:04:29.428Z,12.10
2018-12-07T13:06:57.370Z,12.10
2018-12-07T13:09:25.333Z,12.00
2018-12-07T13:11:54.296Z,12.00
2018-12-07T13:14:22.609Z,12.00
2018-12-07T13:16:50.584Z,12.00
2018-12-07T13:19:19.163Z,12.00
2018-12-07T13:21:47.030Z,12.00
2018-12-07T13:24:15.721Z,11.90
2018-12-07T13:26:43.482Z,11.80
2018-12-07T13:29:11.461Z,11.80
2018-12-07T13:31:39.279Z,11.70
2018-12-07T13:34:07.197Z,11.70
2018-12-07T13:36:35.070Z,11.60
2018-12-07T13:39:03.791Z,11.70
2018-12-07T13:41:32.712Z,11.80
2018-12-07T13:44:00.822Z,11.80
2018-12-07T13:46:28.925Z,11.80
2018-12-07T13:48:57.255Z,11.90
2018-12-07T13:51:25.499Z,11.80
2018-12-07T13:53:53.834Z,11.80
2018-12-07T13:56:21.909Z,11.80
2018-12-07T13:58:49.691Z,11.80
2018-12-07T14:01:17.593Z,11.80
2018-12-07T14:03:45.705Z,11.70
2018-12-07T14:06:13.597Z,11.50
2018-12-07T14:08:42.240Z,11.40
2018-12-07T14:11:10.322Z,11.30
2018-12-07T14:13:38.568Z,11.30
2018-12-07T14:16:06.669Z,11.30
2018-12-07T14:18:34.757Z,11.30
2018-12-07T14:21:03.123Z,11.30
2018-12-07T14:23:31.198Z,11.30
2018-12-07T14:25:59.468Z,11.40
2018-12-07T14:28:27.647Z,11.40
2018-12-07T14:30:55.559Z,11.40
2018-12-07T14:33:23.501Z,11.30
2018-12-07T14:35:51.644Z,11.20
2018-12-07T14:38:19.692Z,11.10
2018-12-07T14:40:47.847Z,11.00
2018-12-07T14:43:15.892Z,10.80
2018-12-07T14:45:44.106Z,10.70
2018-12-07T14:48:12.378Z,10.70
2018-12-07T14:50:40.375Z,10.60
2018-12-07T14:53:08.376Z,10.50
2018-12-07T14:55:36.915Z,10.30
2018-12-07T14:58:04.898Z,10.20
2018-12-07T15:00:33.038Z,10.10
2018-12-07T15:03:01.031Z,10.00
2018-12-07T15:05:28.897Z,9.90
2018-12-07T15:07:56.805Z,9.90
2018-12-07T15:10:24.967Z,9.80
2018-12-07T15:12:53.579Z,9.70
2018-12-07T15:15:21.574Z,9.70
2018-12-07T15:17:49.598Z,9.70
2018-12-07T15:20:18.715Z,9.70
2018-12-07T15:22:47.047Z,9.70
2018-12-07T15:25:15.196Z,9.70
2018-12-07T15:27:43.080Z,9.70
2018-12-07T15:30:12.121Z,9.70
2018-12-07T15:32:39.919Z,9.70
2018-12-07T15:35:08.586Z,9.70
2018-12-07T15:37:36.687Z,9.60
2018-12-07T15:40:07.078Z,9.60
2018-12-07T15:42:34.905Z,9.60
2018-12-07T15:45:03.076Z,9.50
2018-12-07T15:47:31.318Z,9.40
2018-12-07T15:49:59.559Z,9.30
2018-12-07T15:52:27.680Z,9.30
2018-12-07T15:54:55.777Z,9.40
2018-12-07T15:57:23.731Z,9.40
2018-12-07T15:59:51.817Z,9.40
2018-12-07T16:02:19.685Z,9.40
2018-12-07T16:04:48.169Z,9.40
2018-12-07T16:07:16.425Z,9.50
2018-12-07T16:09:44.452Z,9.50
2018-12-07T16:12:12.422Z,9.40
2018-12-07T16:14:41.654Z,9.40
2018-12-07T16:17:11.644Z,9.40
2018-12-07T16:19:40.034Z,9.40
2018-12-07T16:22:08.288Z,9.30
2018-12-07T16:24:36.483Z,9.30
2018-12-07T16:27:04.417Z,9.30
2018-12-07T16:29:32.473Z,9.30
2018-12-07T16:32:00.506Z,9.30
2018-12-07T16:34:28.616Z,9.30
2018-12-07T16:36:59.354Z,9.30
2018-12-07T16:39:27.642Z,9.40
2018-12-07T16:41:55.814Z,9.40
2018-12-07T16:44:24.550Z,9.60
2018-12-07T16:46:53.427Z,9.80
2018-12-07T16:49:22.071Z,9.80
2018-12-07T16:51:54.303Z,9.80
2018-12-07T16:54:25.221Z,9.80
2018-12-07T16:56:53.447Z,9.80
2018-12-07T16:59:23.106Z,9.90
2018-12-07T17:01:51.042Z,9.90
2018-12-07T17:04:21.188Z,9.90
2018-12-07T17:06:50.412Z,9.90
2018-12-07T17:09:20.972Z,9.90
2018-12-07T17:11:49.048Z,10.00
2018-12-07T17:14:18.536Z,10.00
2018-12-07T17:16:46.826Z,10.00
2018-12-07T17:21:50.737Z,9.90
2018-12-07T17:24:21.654Z,9.90
2018-12-07T17:26:49.880Z,10.00
2018-12-07T17:29:17.854Z,9.90
2018-12-07T17:31:45.965Z,9.90
2018-12-07T17:34:16.042Z,9.90
2018-12-07T17:36:44.230Z,9.90
2018-12-07T17:39:13.042Z,10.00
2018-12-07T17:41:44.698Z,10.00
2018-12-07T17:44:24.318Z,10.00
2018-12-07T17:46:52.544Z,10.10
2018-12-07T17:49:20.795Z,10.10
2018-12-07T17:51:50.859Z,10.10
2018-12-07T17:54:20.867Z,10.10
2018-12-07T17:56:49.081Z,10.10
2018-12-07T17:59:17.224Z,10.10
2018-12-07T18:01:45.322Z,10.10
2018-12-07T18:04:15.916Z,10.10
2018-12-07T18:06:50.644Z,10.10
2018-12-07T18:09:18.481Z,10.20
2018-12-07T18:11:48.260Z,10.10
2018-12-07T18:14:17.245Z,10.10
2018-12-07T18:16:45.438Z,10.10
2018-12-07T18:19:14.037Z,10.00
2018-12-07T18:21:43.864Z,10.00
2018-12-07T18:24:16.843Z,10.10
2018-12-07T18:26:45.115Z,10.00
2018-12-07T18:29:14.209Z,10.00
2018-12-07T18:31:42.344Z,10.00
2018-12-07T18:34:13.936Z,9.90
2018-12-07T18:36:41.824Z,9.90
2018-12-07T18:39:10.407Z,9.90
2018-12-07T18:41:38.939Z,9.90
2018-12-07T18:44:09.453Z,9.90
2018-12-07T18:46:37.611Z,9.90
2018-12-07T18:49:06.223Z,9.90
2018-12-07T18:51:38.326Z,9.80
2018-12-07T18:54:06.566Z,9.80
2018-12-07T18:59:15.883Z,9.70
2018-12-07T19:01:45.485Z,9.60
2018-12-07T19:04:15.454Z,9.70
2018-12-07T19:06:43.752Z,9.60
2018-12-07T19:09:13.811Z,9.60
2018-12-07T19:11:46.657Z,9.60
2018-12-07T19:14:20.475Z,9.50
2018-12-07T19:16:50.813Z,9.50
2018-12-07T19:19:20.816Z,9.60
2018-12-07T19:21:48.993Z,9.50
2018-12-07T19:26:52.363Z,9.70
2018-12-07T19:29:25.138Z,9.70
2018-12-07T19:31:54.594Z,9.60
2018-12-07T19:34:24.728Z,9.60
2018-12-07T19:36:54.191Z,9.50
2018-12-07T19:39:23.976Z,9.40
2018-12-07T19:41:56.176Z,9.30
2018-12-07T19:47:04.784Z,9.20
2018-12-07T19:49:37.177Z,9.00
2018-12-07T19:52:06.828Z,8.90
2018-12-07T19:54:41.717Z,8.90
2018-12-07T19:57:20.225Z,8.90
2018-12-07T20:00:03.345Z,8.90
2018-12-07T20:05:09.017Z,8.90
2018-12-07T20:07:42.413Z,8.90
2018-12-07T20:10:13.134Z,9.00
2018-12-07T20:12:44.821Z,9.00
2018-12-07T20:15:15.810Z,9.10
2018-12-07T20:17:44.768Z,9.20
2018-12-07T20:20:15.790Z,9.20
2018-12-07T20:22:44.272Z,9.20
2018-12-07T20:25:12.437Z,9.10
2018-12-07T20:27:43.849Z,9.20
2018-12-07T20:30:14.006Z,9.20
2018-12-07T20:32:43.613Z,9.20
2018-12-07T20:35:15.167Z,9.20
2018-12-07T20:37:49.959Z,9.30
2018-12-07T20:40:19.702Z,9.30
2018-12-07T20:42:48.699Z,9.30
2018-12-07T20:45:17.678Z,9.40
2018-12-07T20:50:20.106Z,9.50
2018-12-07T20:52:48.969Z,9.50
2018-12-07T20:55:21.903Z,9.60
2018-12-07T20:57:54.605Z,9.60
2018-12-07T21:00:25.055Z,9.60
2018-12-07T21:02:55.836Z,9.60
2018-12-07T21:05:42.122Z,9.50
2018-12-07T21:08:12.139Z,9.50
2018-12-07T21:10:59.270Z,9.50
2018-12-07T21:13:39.100Z,9.40
2018-12-07T21:19:43.291Z,9.40
2018-12-07T21:22:14.224Z,9.50
2018-12-07T21:24:43.303Z,9.60
2018-12-07T21:27:11.428Z,9.60
2018-12-07T21:29:39.688Z,9.70
2018-12-07T21:32:11.205Z,9.80
2018-12-07T21:34:51.893Z,9.90
2018-12-07T21:37:20.653Z,9.80
2018-12-07T21:39:49.312Z,9.80
2018-12-07T21:42:21.905Z,9.80
2018-12-07T21:44:51.863Z,9.80
2018-12-07T21:47:50.633Z,9.80
2018-12-07T21:50:18.804Z,9.80
2018-12-07T21:52:48.784Z,9.80
2018-12-07T21:55:17.639Z,9.80
2018-12-07T21:57:45.710Z,9.80
2018-12-07T22:00:13.972Z,9.70
2018-12-07T22:02:41.960Z,9.80
2018-12-07T22:07:41.808Z,9.80
2018-12-07T22:10:11.485Z,9.80
2018-12-07T22:12:41.511Z,9.70
2018-12-07T22:15:10.146Z,9.70
2018-12-07T22:17:38.522Z,9.60
2018-12-07T22:20:07.389Z,9.60
2018-12-07T22:22:35.255Z,9.60
2018-12-07T22:25:03.215Z,9.60
2018-12-07T22:27:31.309Z,9.50
2018-12-07T22:29:59.477Z,9.50
2018-12-07T22:32:27.516Z,9.40
2018-12-07T22:34:55.608Z,9.20
2018-12-07T22:37:23.853Z,9.10
2018-12-07T22:39:52.201Z,9.10
2018-12-07T22:42:21.517Z,9.00
2018-12-07T22:44:49.204Z,9.00
2018-12-07T22:47:17.186Z,9.00
2018-12-07T22:49:45.306Z,9.00
2018-12-07T22:52:13.197Z,8.90
2018-12-07T22:54:40.866Z,8.80
2018-12-07T22:57:08.678Z,8.90
2018-12-07T22:59:36.396Z,8.90
2018-12-07T23:02:04.534Z,8.70
2018-12-07T23:04:32.459Z,8.40
2018-12-07T23:07:00.251Z,8.10
2018-12-07T23:09:28.039Z,8.00
2018-12-07T23:11:56.068Z,7.90
2018-12-07T23:14:23.869Z,7.90
2018-12-07T23:16:51.590Z,8.10
2018-12-07T23:19:19.517Z,8.10
2018-12-07T23:21:47.346Z,8.10
2018-12-07T23:24:15.169Z,8.10
2018-12-07T23:26:43.560Z,8.00
2018-12-07T23:29:19.817Z,8.00
2018-12-07T23:31:47.866Z,7.90
2018-12-07T23:34:15.713Z,7.90
2018-12-07T23:36:43.519Z,7.90
2018-12-07T23:39:11.449Z,7.80
2018-12-07T23:41:39.376Z,7.90
2018-12-07T23:44:07.758Z,7.80
2018-12-07T23:46:35.420Z,7.90
2018-12-07T23:49:04.350Z,7.80
2018-12-07T23:51:32.836Z,7.80
2018-12-07T23:54:01.059Z,7.80
2018-12-07T23:56:29.002Z,7.70
2018-12-07T23:58:56.922Z,7.50
